createdAt,value
2019-05-21T00:01:29.600Z,39.40
2019-05-21T00:03:56.452Z,39.50
2019-05-21T00:06:23.793Z,39.40
2019-05-21T00:08:51.092Z,39.40
2019-05-21T00:11:18.109Z,39.40
2019-05-21T00:13:45.310Z,39.50
2019-05-21T00:16:12.083Z,39.40
2019-05-21T00:18:38.935Z,39.40
2019-05-21T00:21:06.187Z,39.40
2019-05-21T00:23:33.014Z,39.40
2019-05-21T00:26:00.694Z,39.30
2019-05-21T00:28:39.226Z,39.30
2019-05-21T00:31:43.577Z,39.30
2019-05-21T00:34:48.389Z,39.20
2019-05-21T00:37:52.596Z,39.10
2019-05-21T00:40:57.244Z,39.00
2019-05-21T00:43:40.897Z,38.80
2019-05-21T00:46:08.337Z,38.70
2019-05-21T00:48:35.154Z,38.60
2019-05-21T00:51:01.934Z,38.60
2019-05-21T00:53:28.665Z,38.50
2019-05-21T00:55:55.080Z,38.50
2019-05-21T00:58:22.325Z,38.50
2019-05-21T01:00:50.007Z,38.60
2019-05-21T01:03:16.727Z,38.50
2019-05-21T01:05:43.673Z,38.50
2019-05-21T01:08:10.982Z,38.60
2019-05-21T01:10:37.621Z,39.20
2019-05-21T01:13:04.272Z,38.50
2019-05-21T01:15:31.472Z,38.50
2019-05-21T01:17:58.046Z,38.50
2019-05-21T01:20:25.178Z,38.50
2019-05-21T01:22:52.557Z,38.40
2019-05-21T01:25:19.566Z,38.40
2019-05-21T01:27:46.088Z,38.50
2019-05-21T01:30:13.156Z,38.70
2019-05-21T01:32:39.908Z,38.60
2019-05-21T01:35:16.888Z,38.60
2019-05-21T01:37:35.639Z,38.60
2019-05-21T01:40:04.238Z,38.60
2019-05-21T01:42:34.165Z,38.70
2019-05-21T01:45:04.852Z,38.70
2019-05-21T01:47:31.744Z,38.80
2019-05-21T01:49:58.767Z,38.90
2019-05-21T01:52:25.890Z,38.90
2019-05-21T01:54:53.089Z,39.00
2019-05-21T01:57:19.922Z,39.10
2019-05-21T01:59:47.161Z,39.10
2019-05-21T02:02:13.919Z,39.10
2019-05-21T02:04:40.648Z,39.10
2019-05-21T02:07:08.058Z,39.80
2019-05-21T02:09:36.881Z,39.10
2019-05-21T02:12:03.560Z,39.10
2019-05-21T02:14:30.595Z,39.10
2019-05-21T02:16:57.162Z,39.10
2019-05-21T02:19:23.746Z,39.10
2019-05-21T02:21:50.924Z,39.10
2019-05-21T02:24:18.044Z,39.00
2019-05-21T02:26:44.870Z,39.40
2019-05-21T02:29:11.941Z,39.10
2019-05-21T02:31:38.615Z,39.00
2019-05-21T02:34:05.484Z,39.10
2019-05-21T02:36:32.705Z,39.20
2019-05-21T02:38:59.699Z,39.00
2019-05-21T02:41:26.989Z,39.00
2019-05-21T02:43:54.327Z,38.90
2019-05-21T02:46:21.049Z,38.70
2019-05-21T02:48:48.232Z,38.70
2019-05-21T02:51:15.595Z,38.70
2019-05-21T02:53:42.635Z,38.70
2019-05-21T02:56:09.565Z,38.70
2019-05-21T02:58:36.959Z,38.70
2019-05-21T03:01:18.085Z,38.80
2019-05-21T03:03:45.795Z,38.90
2019-05-21T03:06:14.751Z,39.00
2019-05-21T03:08:41.249Z,39.00
2019-05-21T03:11:08.713Z,38.90
2019-05-21T03:13:36.025Z,39.00
2019-05-21T03:16:02.957Z,39.20
2019-05-21T03:18:30.519Z,39.20
2019-05-21T03:20:57.294Z,39.30
2019-05-21T03:23:24.187Z,39.50
2019-05-21T03:25:51.584Z,39.60
2019-05-21T03:28:18.594Z,39.70
2019-05-21T03:30:45.501Z,39.70
2019-05-21T03:33:12.533Z,39.60
2019-05-21T03:35:39.194Z,39.50
2019-05-21T03:38:06.205Z,39.40
2019-05-21T03:40:33.339Z,39.40
2019-05-21T03:43:00.318Z,39.40
2019-05-21T03:45:28.363Z,39.30
2019-05-21T03:47:55.534Z,39.10
2019-05-21T03:50:22.672Z,39.00
2019-05-21T03:52:50.324Z,38.80
2019-05-21T03:55:18.008Z,38.80
2019-05-21T03:57:44.755Z,38.80
2019-05-21T04:00:12.524Z,38.50
2019-05-21T04:02:40.209Z,38.40
2019-05-21T04:05:07.463Z,38.50
2019-05-21T04:07:34.145Z,38.30
2019-05-21T04:10:01.447Z,38.30
2019-05-21T04:12:28.351Z,38.30
2019-05-21T04:15:06.360Z,38.50
2019-05-21T04:17:47.328Z,38.20
2019-05-21T04:20:14.913Z,38.20
2019-05-21T04:22:49.944Z,38.10
2019-05-21T04:25:16.977Z,37.90
2019-05-21T04:27:44.347Z,37.70
2019-05-21T04:30:12.001Z,37.70
2019-05-21T04:32:39.360Z,37.50
2019-05-21T04:35:06.418Z,37.70
2019-05-21T04:37:33.531Z,37.20
2019-05-21T04:40:02.137Z,37.00
2019-05-21T04:42:28.983Z,36.90
2019-05-21T04:44:56.030Z,36.80
2019-05-21T04:47:23.203Z,36.70
2019-05-21T04:49:50.440Z,36.50
2019-05-21T04:52:17.221Z,36.60
2019-05-21T04:54:44.394Z,36.40
2019-05-21T04:57:11.276Z,36.30
2019-05-21T04:59:38.330Z,36.50
2019-05-21T05:02:05.569Z,36.20
2019-05-21T05:04:33.261Z,36.20
2019-05-21T05:07:00.317Z,36.50
2019-05-21T05:09:27.739Z,35.50
2019-05-21T05:11:54.545Z,35.50
2019-05-21T05:14:21.105Z,35.60
2019-05-21T05:16:48.190Z,35.60
2019-05-21T05:19:15.444Z,35.60
2019-05-21T05:21:42.505Z,35.70
2019-05-21T05:24:10.034Z,35.70
2019-05-21T05:26:36.859Z,35.60
2019-05-21T05:29:03.844Z,35.30
2019-05-21T05:31:31.177Z,35.40
2019-05-21T05:33:57.994Z,35.50
2019-05-21T05:36:25.072Z,35.40
2019-05-21T05:38:52.509Z,35.20
2019-05-21T05:41:19.894Z,35.20
2019-05-21T05:43:46.832Z,35.30
2019-05-21T05:46:15.803Z,35.20
2019-05-21T05:48:47.709Z,35.30
2019-05-21T05:51:14.539Z,35.40
2019-05-21T05:53:57.186Z,35.30
2019-05-21T05:56:25.527Z,35.40
2019-05-21T05:58:52.458Z,35.50
2019-05-21T06:01:20.190Z,35.60
2019-05-21T06:03:48.851Z,35.50
2019-05-21T06:06:15.726Z,35.30
2019-05-21T06:08:43.427Z,35.30
2019-05-21T06:11:10.493Z,35.40
2019-05-21T06:13:37.545Z,35.10
2019-05-21T06:16:04.911Z,35.30
2019-05-21T06:18:35.360Z,35.50
2019-05-21T06:21:00.883Z,35.40
2019-05-21T06:23:28.104Z,35.60
2019-05-21T06:25:54.956Z,35.60
2019-05-21T06:28:22.045Z,35.50
2019-05-21T06:30:49.293Z,35.30
2019-05-21T06:33:16.067Z,35.20
2019-05-21T06:35:42.908Z,35.80
2019-05-21T06:38:17.758Z,34.80
2019-05-21T06:40:38.792Z,34.80
2019-05-21T06:43:05.663Z,34.80
2019-05-21T06:45:32.675Z,34.80
2019-05-21T06:47:59.659Z,34.90
2019-05-21T06:50:26.183Z,34.90
2019-05-21T06:52:53.114Z,34.90
2019-05-21T06:55:19.650Z,34.80
2019-05-21T06:57:46.211Z,35.00
2019-05-21T07:00:14.652Z,34.90
2019-05-21T07:02:41.189Z,35.00
2019-05-21T07:05:08.140Z,35.30
2019-05-21T07:07:35.181Z,35.60
2019-05-21T07:10:02.909Z,35.40
2019-05-21T07:12:29.774Z,35.80
2019-05-21T07:14:56.915Z,36.10
2019-05-21T07:17:23.535Z,36.30
2019-05-21T07:19:50.256Z,36.50
2019-05-21T07:22:17.037Z,36.40
2019-05-21T07:24:43.616Z,36.20
2019-05-21T07:27:13.595Z,36.40
2019-05-21T07:29:40.675Z,36.40
2019-05-21T07:32:07.486Z,36.50
2019-05-21T07:34:34.262Z,36.70
2019-05-21T07:37:01.319Z,37.00
2019-05-21T07:39:28.245Z,37.10
2019-05-21T07:41:55.078Z,37.50
2019-05-21T07:44:22.145Z,37.60
2019-05-21T07:46:48.835Z,37.60
2019-05-21T07:49:16.734Z,37.90
2019-05-21T07:51:43.845Z,37.70
2019-05-21T07:54:10.532Z,37.70
2019-05-21T07:56:37.190Z,37.60
2019-05-21T07:59:04.119Z,37.70
2019-05-21T08:01:30.945Z,37.80
2019-05-21T08:03:57.481Z,37.50
2019-05-21T08:06:24.472Z,37.40
2019-05-21T08:08:51.138Z,37.20
2019-05-21T08:11:17.875Z,37.00
2019-05-21T08:13:44.777Z,36.40
2019-05-21T08:16:11.221Z,36.10
2019-05-21T08:18:37.855Z,35.90
2019-05-21T08:21:05.020Z,35.80
2019-05-21T08:23:31.569Z,35.90
2019-05-21T08:25:58.122Z,35.80
2019-05-21T08:28:26.249Z,35.70
2019-05-21T08:30:53.193Z,35.90
2019-05-21T08:33:20.423Z,36.00
2019-05-21T08:35:47.511Z,35.80
2019-05-21T08:38:14.336Z,36.10
2019-05-21T08:40:41.081Z,35.80
2019-05-21T08:43:08.415Z,35.60
2019-05-21T08:45:35.091Z,35.70
2019-05-21T08:48:02.188Z,36.50
2019-05-21T08:50:29.193Z,36.20
2019-05-21T08:52:55.792Z,36.10
2019-05-21T08:55:23.244Z,36.60
2019-05-21T08:58:05.694Z,37.00
2019-05-21T09:00:20.937Z,37.50
2019-05-21T09:02:47.876Z,37.70
2019-05-21T09:05:15.158Z,38.00
2019-05-21T09:07:42.023Z,38.20
2019-05-21T09:10:09.327Z,38.50
2019-05-21T09:12:37.228Z,38.80
2019-05-21T09:15:06.208Z,39.10
2019-05-21T09:17:32.878Z,39.90
2019-05-21T09:19:59.805Z,40.10
2019-05-21T09:22:26.443Z,40.40
2019-05-21T09:24:53.209Z,40.30
2019-05-21T09:27:23.008Z,40.30
2019-05-21T09:29:49.787Z,40.50
2019-05-21T09:32:16.301Z,41.00
2019-05-21T09:34:48.796Z,41.20
2019-05-21T09:37:19.691Z,41.20
2019-05-21T09:39:40.023Z,41.40
2019-05-21T09:42:06.827Z,40.80
2019-05-21T09:44:33.406Z,39.80
2019-05-21T09:47:00.053Z,39.70
2019-05-21T09:49:26.945Z,39.70
2019-05-21T09:51:53.485Z,38.50
2019-05-21T09:54:20.003Z,37.10
2019-05-21T09:56:46.873Z,37.40
2019-05-21T09:59:21.200Z,37.50
2019-05-21T10:02:08.302Z,38.10
2019-05-21T10:04:34.978Z,36.50
2019-05-21T10:07:01.457Z,35.00
2019-05-21T10:09:28.494Z,33.80
2019-05-21T10:11:54.959Z,35.20
2019-05-21T10:14:21.451Z,33.30
2019-05-21T10:16:48.135Z,32.90
2019-05-21T10:19:14.980Z,32.20
2019-05-21T10:21:41.817Z,32.20
2019-05-21T10:24:08.893Z,31.30
2019-05-21T10:26:35.450Z,31.50
2019-05-21T10:29:02.528Z,31.20
2019-05-21T10:31:29.508Z,31.70
2019-05-21T10:33:56.637Z,31.80
2019-05-21T10:36:23.706Z,31.20
2019-05-21T10:38:50.794Z,31.40
2019-05-21T10:41:17.582Z,31.40
2019-05-21T10:43:44.618Z,31.20
2019-05-21T10:46:11.741Z,31.90
2019-05-21T10:48:38.422Z,30.60
2019-05-21T10:51:05.182Z,30.10
2019-05-21T10:53:31.926Z,30.00
2019-05-21T10:55:59.349Z,30.10
2019-05-21T10:58:25.907Z,30.00
2019-05-21T11:00:54.737Z,30.70
2019-05-21T11:03:23.173Z,29.80
2019-05-21T11:06:09.479Z,29.80
2019-05-21T11:08:25.660Z,29.50
2019-05-21T11:10:52.398Z,28.70
2019-05-21T11:13:19.362Z,29.00
2019-05-21T11:15:46.033Z,28.60
2019-05-21T11:18:12.765Z,28.50
2019-05-21T11:20:40.926Z,28.70
2019-05-21T11:23:07.779Z,29.30
2019-05-21T11:25:34.426Z,29.30
2019-05-21T11:28:05.322Z,29.20
2019-05-21T11:30:29.834Z,28.90
2019-05-21T11:32:56.484Z,28.10
2019-05-21T11:35:23.429Z,27.80
2019-05-21T11:37:50.107Z,29.00
2019-05-21T11:40:17.634Z,28.60
2019-05-21T11:42:44.537Z,28.50
2019-05-21T11:45:11.625Z,28.40
2019-05-21T11:47:38.298Z,29.10
2019-05-21T11:50:08.987Z,29.30
2019-05-21T11:52:35.772Z,29.70
2019-05-21T11:55:03.010Z,29.40
2019-05-21T11:57:30.010Z,28.80
2019-05-21T11:59:56.605Z,29.00
2019-05-21T12:02:23.206Z,29.80
2019-05-21T12:04:50.250Z,29.20
2019-05-21T12:07:18.071Z,29.40
2019-05-21T12:09:44.608Z,28.80
2019-05-21T12:12:11.719Z,29.10
2019-05-21T12:14:38.426Z,29.20
2019-05-21T12:17:05.107Z,29.60
2019-05-21T12:19:32.241Z,28.90
2019-05-21T12:21:59.014Z,29.40
2019-05-21T12:24:27.572Z,29.80
2019-05-21T12:26:55.010Z,29.80
2019-05-21T12:29:21.694Z,30.40
2019-05-21T12:31:48.262Z,30.40
2019-05-21T12:34:15.268Z,30.30
2019-05-21T12:36:43.202Z,30.30
2019-05-21T12:39:14.179Z,30.20
2019-05-21T12:41:39.090Z,30.80
2019-05-21T12:44:05.597Z,31.40
2019-05-21T12:46:32.177Z,31.50
2019-05-21T12:48:59.288Z,32.00
2019-05-21T12:51:26.215Z,31.90
2019-05-21T12:53:53.233Z,32.20
2019-05-21T12:56:20.524Z,32.60
2019-05-21T12:58:47.494Z,31.90
2019-05-21T13:01:14.252Z,31.90
2019-05-21T13:03:41.645Z,32.00
2019-05-21T13:06:08.826Z,31.90
2019-05-21T13:08:35.616Z,32.00
2019-05-21T13:11:02.720Z,32.50
2019-05-21T13:13:29.741Z,32.70
2019-05-21T13:15:57.119Z,33.00
2019-05-21T13:18:24.563Z,33.80
2019-05-21T13:20:51.814Z,34.20
2019-05-21T13:23:19.296Z,34.50
2019-05-21T13:25:46.843Z,35.30
2019-05-21T13:28:14.394Z,35.60
2019-05-21T13:30:41.535Z,36.30
2019-05-21T13:33:08.796Z,36.60
2019-05-21T13:35:35.914Z,36.70
2019-05-21T13:38:02.812Z,36.70
2019-05-21T13:40:30.930Z,36.50
2019-05-21T13:42:57.863Z,36.20
2019-05-21T13:45:24.587Z,36.50
2019-05-21T13:47:51.446Z,36.80
2019-05-21T13:50:18.534Z,36.60
2019-05-21T13:52:45.517Z,36.80
2019-05-21T13:55:12.686Z,37.00
2019-05-21T13:57:39.589Z,37.00
2019-05-21T14:00:09.490Z,37.00
2019-05-21T14:02:37.571Z,36.80
2019-05-21T14:05:04.860Z,36.80
2019-05-21T14:07:31.930Z,36.80
2019-05-21T14:10:14.015Z,36.70
2019-05-21T14:12:27.635Z,36.80
2019-05-21T14:14:54.334Z,36.80
2019-05-21T14:17:21.811Z,36.80
2019-05-21T14:19:49.058Z,37.20
2019-05-21T14:22:17.172Z,38.10
2019-05-21T14:24:44.290Z,37.70
2019-05-21T14:27:12.226Z,38.60
2019-05-21T14:29:39.299Z,39.10
2019-05-21T14:32:06.508Z,38.70
2019-05-21T14:34:33.818Z,38.20
2019-05-21T14:37:00.976Z,38.00
2019-05-21T14:39:28.075Z,38.00
2019-05-21T14:41:55.433Z,38.10
2019-05-21T14:44:22.636Z,38.20
2019-05-21T14:46:49.486Z,38.30
2019-05-21T14:49:16.617Z,38.20
2019-05-21T14:51:43.702Z,38.40
2019-05-21T14:54:25.555Z,38.60
2019-05-21T14:56:39.807Z,38.50
2019-05-21T14:59:06.670Z,38.50
2019-05-21T15:01:34.735Z,38.20
2019-05-21T15:04:02.000Z,38.20
2019-05-21T15:06:29.100Z,38.00
2019-05-21T15:08:55.954Z,38.40
2019-05-21T15:11:23.224Z,37.90
2019-05-21T15:13:50.030Z,38.00
2019-05-21T15:16:16.815Z,37.50
2019-05-21T15:18:44.640Z,37.30
2019-05-21T15:21:13.556Z,37.20
2019-05-21T15:23:41.281Z,37.10
2019-05-21T15:26:09.014Z,37.00
2019-05-21T15:28:35.638Z,37.10
2019-05-21T15:31:02.828Z,36.60
2019-05-21T15:33:29.644Z,36.60
2019-05-21T15:35:56.691Z,36.60
2019-05-21T15:38:24.408Z,36.50
2019-05-21T15:41:08.466Z,36.30
2019-05-21T15:43:22.199Z,36.10
2019-05-21T15:45:51.519Z,36.10
2019-05-21T15:48:33.080Z,35.90
2019-05-21T15:51:00.372Z,35.90
2019-05-21T15:53:40.877Z,36.00
2019-05-21T15:56:08.013Z,35.60
2019-05-21T15:58:37.325Z,35.50
2019-05-21T16:01:04.557Z,35.40
2019-05-21T16:03:31.621Z,35.30
2019-05-21T16:05:58.603Z,35.10
2019-05-21T16:08:25.897Z,35.00
2019-05-21T16:10:53.357Z,35.10
2019-05-21T16:13:20.166Z,35.20
2019-05-21T16:15:47.453Z,35.40
2019-05-21T16:18:14.497Z,35.40
2019-05-21T16:20:42.686Z,35.50
2019-05-21T16:23:10.699Z,35.20
2019-05-21T16:25:38.116Z,35.10
2019-05-21T16:28:06.052Z,34.90
2019-05-21T16:30:34.273Z,34.90
2019-05-21T16:33:01.219Z,34.90
2019-05-21T16:35:29.182Z,34.70
2019-05-21T16:37:56.333Z,34.40
2019-05-21T16:40:23.054Z,34.30
2019-05-21T16:42:50.238Z,34.00
2019-05-21T16:45:17.793Z,34.00
2019-05-21T16:47:46.638Z,34.10
2019-05-21T16:50:14.747Z,34.30
2019-05-21T16:52:42.171Z,34.80
2019-05-21T16:55:09.130Z,35.10
2019-05-21T16:57:36.627Z,35.40
2019-05-21T17:00:08.159Z,35.60
2019-05-21T17:02:35.562Z,35.90
2019-05-21T17:05:05.122Z,36.00
2019-05-21T17:07:33.701Z,36.10
2019-05-21T17:10:00.662Z,36.10
2019-05-21T17:12:28.111Z,36.20
2019-05-21T17:14:55.381Z,36.20
2019-05-21T17:17:23.016Z,36.20
2019-05-21T17:19:50.428Z,36.20
2019-05-21T17:22:17.955Z,36.00
2019-05-21T17:24:44.636Z,35.90
2019-05-21T17:27:11.404Z,35.90
2019-05-21T17:29:38.713Z,36.00
2019-05-21T17:32:06.574Z,36.00
2019-05-21T17:34:34.713Z,36.30
2019-05-21T17:37:02.043Z,36.70
2019-05-21T17:39:29.126Z,36.60
2019-05-21T17:41:56.142Z,36.50
2019-05-21T17:44:24.971Z,36.50
2019-05-21T17:46:52.151Z,36.40
2019-05-21T17:49:19.853Z,36.50
2019-05-21T17:51:47.646Z,36.20
2019-05-21T17:54:15.311Z,36.40
2019-05-21T17:56:42.884Z,36.60
2019-05-21T17:59:11.571Z,36.30
2019-05-21T18:01:38.668Z,36.40
2019-05-21T18:04:05.958Z,36.30
2019-05-21T18:06:33.906Z,36.00
2019-05-21T18:09:04.558Z,36.10
2019-05-21T18:11:33.369Z,36.10
2019-05-21T18:14:01.843Z,35.90
2019-05-21T18:16:30.046Z,36.00
2019-05-21T18:18:57.380Z,35.50
2019-05-21T18:21:25.377Z,36.00
2019-05-21T18:23:52.807Z,36.00
2019-05-21T18:26:19.761Z,35.80
2019-05-21T18:28:47.063Z,35.70
2019-05-21T18:31:14.212Z,35.40
2019-05-21T18:33:45.830Z,35.30
2019-05-21T18:36:12.989Z,35.30
2019-05-21T18:38:40.506Z,35.30
2019-05-21T18:41:08.398Z,35.30
2019-05-21T18:43:36.239Z,35.30
2019-05-21T18:46:03.191Z,35.30
2019-05-21T18:48:32.596Z,35.40
2019-05-21T18:51:01.095Z,35.40
2019-05-21T18:53:29.013Z,35.30
2019-05-21T18:55:56.636Z,34.90
2019-05-21T18:58:25.004Z,34.90
2019-05-21T19:00:51.828Z,35.20
2019-05-21T19:03:25.382Z,35.30
2019-05-21T19:05:48.539Z,35.20
2019-05-21T19:08:16.525Z,35.30
2019-05-21T19:10:43.468Z,35.30
2019-05-21T19:13:10.586Z,35.50
2019-05-21T19:15:37.722Z,35.70
2019-05-21T19:18:04.670Z,36.00
2019-05-21T19:20:31.764Z,36.10
2019-05-21T19:22:59.085Z,36.00
2019-05-21T19:25:26.060Z,35.90
2019-05-21T19:27:53.692Z,35.70
2019-05-21T19:30:21.327Z,35.50
2019-05-21T19:32:48.161Z,35.80
2019-05-21T19:35:15.650Z,35.60
2019-05-21T19:37:42.449Z,35.70
2019-05-21T19:40:10.109Z,35.90
2019-05-21T19:42:52.031Z,36.10
2019-05-21T19:45:07.950Z,35.90
2019-05-21T19:47:35.295Z,35.80
2019-05-21T19:50:04.921Z,35.80
2019-05-21T19:52:31.843Z,35.60
2019-05-21T19:54:59.227Z,35.40
2019-05-21T19:57:27.533Z,35.30
2019-05-21T19:59:55.041Z,35.10
2019-05-21T20:02:22.588Z,35.10
2019-05-21T20:04:50.050Z,35.40
2019-05-21T20:07:19.088Z,35.50
2019-05-21T20:09:48.503Z,35.50
2019-05-21T20:12:17.039Z,35.50
2019-05-21T20:14:45.098Z,35.50
2019-05-21T20:17:14.181Z,35.40
2019-05-21T20:19:42.200Z,35.20
2019-05-21T20:22:11.089Z,35.10
2019-05-21T20:24:40.784Z,35.10
2019-05-21T20:27:08.532Z,36.00
2019-05-21T20:29:36.545Z,35.20
2019-05-21T20:32:06.267Z,35.30
2019-05-21T20:34:33.377Z,35.40
2019-05-21T20:37:00.531Z,35.40
2019-05-21T20:39:29.877Z,35.40
2019-05-21T20:41:57.615Z,35.40
2019-05-21T20:44:25.699Z,35.40
2019-05-21T20:46:54.904Z,35.80
2019-05-21T20:49:22.425Z,35.80
2019-05-21T20:51:49.598Z,35.70
2019-05-21T20:54:19.183Z,35.80
2019-05-21T20:56:46.365Z,35.60
2019-05-21T20:59:13.528Z,35.50
2019-05-21T21:01:41.165Z,35.50
2019-05-21T21:04:09.831Z,35.70
2019-05-21T21:06:37.715Z,35.90
2019-05-21T21:09:13.268Z,35.80
2019-05-21T21:11:41.013Z,35.80
2019-05-21T21:14:18.101Z,35.70
2019-05-21T21:16:37.804Z,35.80
2019-05-21T21:19:05.030Z,35.70
2019-05-21T21:21:33.813Z,35.80
2019-05-21T21:24:01.199Z,35.80
2019-05-21T21:26:28.423Z,36.90
2019-05-21T21:28:55.338Z,36.70
2019-05-21T21:31:22.925Z,36.80
2019-05-21T21:33:49.817Z,36.70
2019-05-21T21:36:16.568Z,36.80
2019-05-21T21:38:44.313Z,37.40
2019-05-21T21:41:10.952Z,37.20
2019-05-21T21:43:37.625Z,37.30
2019-05-21T21:46:06.888Z,37.00
2019-05-21T21:48:33.914Z,36.80
2019-05-21T21:51:01.720Z,36.60
2019-05-21T21:53:29.579Z,36.80
2019-05-21T21:55:57.344Z,36.90
2019-05-21T21:58:24.020Z,36.80
2019-05-21T22:01:13.210Z,36.70
2019-05-21T22:03:42.938Z,36.80
2019-05-21T22:06:09.706Z,36.70
2019-05-21T22:08:38.431Z,36.60
2019-05-21T22:11:05.555Z,36.30
2019-05-21T22:13:32.371Z,36.00
2019-05-21T22:15:59.831Z,35.90
2019-05-21T22:18:28.163Z,36.20
2019-05-21T22:20:54.900Z,36.10
2019-05-21T22:23:22.211Z,35.90
2019-05-21T22:25:49.164Z,36.10
2019-05-21T22:28:18.409Z,36.10
2019-05-21T22:30:45.593Z,36.00
2019-05-21T22:33:13.043Z,35.80
2019-05-21T22:35:39.684Z,35.60
2019-05-21T22:38:06.235Z,35.50
2019-05-21T22:40:32.793Z,35.60
2019-05-21T22:42:59.466Z,35.60
2019-05-21T22:45:26.158Z,35.60
2019-05-21T22:47:52.715Z,35.80
2019-05-21T22:50:19.265Z,35.90
2019-05-21T22:52:46.275Z,35.90
2019-05-21T22:55:12.829Z,36.00
2019-05-21T22:57:39.371Z,36.40
2019-05-21T23:00:07.686Z,36.60
2019-05-21T23:02:36.816Z,36.80
2019-05-21T23:05:05.761Z,37.00
2019-05-21T23:07:32.874Z,37.40
2019-05-21T23:09:59.746Z,37.70
2019-05-21T23:12:26.942Z,37.90
2019-05-21T23:14:54.323Z,37.90
2019-05-21T23:17:23.290Z,38.00
2019-05-21T23:20:11.767Z,38.30
2019-05-21T23:22:42.911Z,38.80
2019-05-21T23:25:10.194Z,39.20
2019-05-21T23:27:37.619Z,39.40
2019-05-21T23:30:09.972Z,39.50
2019-05-21T23:32:37.397Z,39.80
2019-05-21T23:35:06.119Z,40.10
2019-05-21T23:37:32.670Z,40.30
2019-05-21T23:40:00.344Z,40.20
2019-05-21T23:42:29.895Z,40.30
2019-05-21T23:44:58.520Z,40.30
2019-05-21T23:47:26.689Z,40.40
2019-05-21T23:49:53.776Z,40.40
2019-05-21T23:52:21.182Z,40.40
2019-05-21T23:54:47.939Z,40.40
2019-05-21T23:57:17.148Z,40.50
2019-05-21T23:59:44.027Z,40.50
